ADDS METAR Data INFO
IDs: Format: Raw Decoded Include TAF

Data at: 2008 UTC 18 Jul 2018

KGED 181954Z AUTO 01005KT 10SM SCT070 29/16 A2991 RMK AO2 SLP129 T02890156
KGED 181854Z AUTO 33007KT 280V020 10SM FEW070 31/15 A2992 RMK AO2 SLP130 T03060150
KGED 181754Z AUTO 30007KT 10SM SCT065 30/14 A2992 RMK AO2 SLP129 T03000139 10300 20233 56004
KGED 181654Z AUTO VRB05KT 10SM CLR 29/16 A2992 RMK AO2 SLP130 T02940156
KGED 181554Z AUTO 34006KT 10SM CLR 28/18 A2992 RMK AO2 SLP131 T02830183
KGED 181454Z AUTO 33005KT 10SM CLR 26/18 A2993 RMK AO2 SLP134 T02610178 50009
KGED 181354Z AUTO 01005KT 10SM BKN070 26/18 A2993 RMK AO2 SLP136 T02560178
KGED 181254Z AUTO 34005KT 10SM CLR 23/19 A2994 RMK AO2 SLP136 T02330194
KGED 181154Z AUTO 35006KT 10SM CLR 23/21 A2990 RMK AO2 SLP125 70027 T02330206 10233 20222 53017
KGED 181054Z AUTO 01005KT 10SM CLR 22/21 A2988 RMK AO2 SLP118 T02220211 $
KGED 180954Z AUTO 02005KT 9SM CLR 23/22 A2987 RMK AO2 SLP114 T02280217 $
KGED 180936Z AUTO 35007KT 9SM FEW009 23/22 A2986 RMK AO2 T02280217 $
KGED 180854Z AUTO 35004KT 7SM BKN006 23/22 A2985 RMK AO2 CIG 004V009 SLP108 T02280222 53007 $
KGED 180834Z AUTO VRB03KT 8SM BKN006 23/22 A2985 RMK AO2 CIG 004V008 T02280222 $
KGED 180754Z AUTO 30004KT 7SM FEW007 SCT024 23/22 A2985 RMK AO2 SLP105 T02280222 $
KGED 180654Z AUTO 30004KT 8SM CLR 23/22 A2983 RMK AO2 SLP100 T02280217 $
KGED 180554Z AUTO 00000KT 9SM CLR 23/22 A2983 RMK AO2 SLP101 T02280222 10233 20228 51002 $
KGED 180516Z AUTO 31003KT 8SM SCT002 23/22 A2983 RMK AO2 T02280222 $
KGED 180454Z AUTO 32003KT 5SM BR OVC002 23/22 A2983 RMK AO2 SLP099 T02280222 403500228 $
KGED 180441Z AUTO 31004KT 3SM BR OVC002 23/22 A2983 RMK AO2 T02280222 $
KGED 180429Z AUTO 33004KT 2SM BR OVC002 23/22 A2983 RMK AO2 T02280222 $
KGED 180421Z AUTO VRB03KT 1SM BR OVC002 23/22 A2983 RMK AO2 T02280222 $
KGED 180409Z AUTO 30004KT 1 3/4SM BR BKN002 23/22 A2984 RMK AO2 T02280222 $
KGED 180405Z AUTO 00000KT 3SM BR BKN002 23/23 A2984 RMK AO2 T02280228 $
KGED 180354Z AUTO 31003KT 10SM SCT004 23/22 A2984 RMK AO2 SLP104 T02280222 $
KGED 180254Z AUTO 24003KT 10SM FEW085 23/22 A2983 RMK AO2 SLP099 T02280222 57002 $
KGED 180154Z AUTO 35003KT 10SM BKN060 BKN080 23/22 A2985 RMK AO2 LTG DSNT E SLP107 T02330222
KGED 180054Z AUTO 00000KT 10SM CLR 23/22 A2981 RMK AO2 LTG DSNT SE SLP095 T02280222
KGED 172354Z AUTO 12003KT 10SM SCT028 BKN060 OVC075 23/22 A2983 RMK AO2 LTG DSNT E AND SE RAE53 TSE2259B13E28 SLP102 P0002 60027 T02280222 10350 20228 51016
KGED 172333Z AUTO 11005KT 10SM -RA FEW040 SCT065 BKN090 23/22 A2984 RMK AO2 LTG DSNT NE-SE TSE2259B13E28 P0002 T02280217
KGED 172319Z AUTO 07005KT 9SM -TSRA FEW070 SCT090 BKN110 23/22 A2983 RMK AO2 LTG DSNT NE-S TSE2259B13 P0002 T02280217
KGED 172305Z AUTO 00000KT 4SM VCTS -RA BR FEW070 BKN100 23/22 A2984 RMK AO2 LTG DSNT ALQDS TSE2259 P0001 T02280217
KGED 172254Z AUTO VRB04KT 5SM TSRA BR FEW075 BKN095 OVC110 23/22 A2983 RMK AO2 PK WND 27032/2202 LTG DSNT ALQDS TSB04 SLP101 P0025 T02280217
KGED 172222Z AUTO 24008G15KT 6SM TSRA BR FEW029 SCT047 BKN100 23/22 A2983 RMK AO2 PK WND 27032/2202 LTG DSNT ALQDS TSB04 P0021 T02330217
KGED 172205Z AUTO 25014G32KT 2 1/2SM +TSRA SCT029 BKN046 OVC100 25/22 A2985 RMK AO2 PK WND 27032/2202 LTG DSNT ALQDS TSB04 PRESRR P0011 T02500217
KGED 172154Z AUTO 22011KT 9SM VCTS -RA FEW050 BKN065 OVC100 29/22 A2981 RMK AO2 LTG DSNT ALQDS RAB49 SLP095 P0000 T02940222
KGED 172142Z AUTO 20007KT 10SM VCTS SCT070 OVC100 30/21 A2980 RMK AO2 LTG DSNT SW-N T03000211
KGED 172054Z AUTO 23010KT 10SM FEW055 32/21 A2979 RMK AO2 LTG DSNT W-N SLP086 60000 T03170211 55014
KGED 171954Z AUTO 20018G25KT 10SM CLR 34/19 A2978 RMK AO2 PK WND 21026/1910 RAB01E11B28E30 SLP083 P0000 T03440194
KGED 171854Z AUTO 20015G24KT 10SM CLR 34/19 A2979 RMK AO2 PK WND 18026/1833 SLP088 T03440194
KGED 171754Z AUTO 23015G24KT 10SM CLR 34/21 A2983 RMK AO2 SLP100 T03440206 10350 20267 58019
KGED 171654Z AUTO 24013G24KT 10SM FEW050 34/21 A2985 RMK AO2 SLP108 T03390211
KGED 171554Z AUTO 23011KT 10SM CLR 33/22 A2987 RMK AO2 SLP115 T03280222
KGED 171454Z AUTO 23009KT 10SM CLR 32/23 A2988 RMK AO2 SLP118 T03170228 58011
KGED 171354Z AUTO 22011KT 10SM CLR 31/23 A2990 RMK AO2 SLP124 T03060233
KGED 171254Z AUTO 21009KT 10SM CLR 29/24 A2991 RMK AO2 SLP127 T02890239
KGED 171154Z AUTO 20011KT 10SM CLR 27/24 A2992 RMK AO2 SLP129 70009 T02670244 10267 20239 58003
KGED 171054Z AUTO 19008KT 10SM CLR 24/23 A2992 RMK AO2 SLP131 T02440233
KGED 170954Z AUTO 20007KT 9SM CLR 24/23 A2992 RMK AO2 SLP132 T02390233
KGED 170854Z AUTO 20007KT 10SM CLR 24/23 A2992 RMK AO2 SLP132 T02390233 58011